Time;durP1;ratioP1;P1;durP2;ratioP2;P2;SDS_P1;SDS_P2;PMS_P1;PMS_P2;Temp;Humidity;BMP_temperature;BMP_pressure;BME280_temperature;BME280_humidity;BME280_pressure;Samples;Min_cycle;Max_cycle;Signal;HPM_P1;HPM_P2
2023/04/30 00:01:49;;;;;;;17.57;15.77;;;13.10;1.00;;;;;;5065312;28;20720;-55
2023/04/30 00:04:15;;;;;;;18.70;16.17;;;13.10;1.00;;;;;;5068261;28;20191;-53
2023/04/30 00:06:40;;;;;;;18.90;15.40;;;13.10;1.00;;;;;;5077190;28;20584;-53
2023/04/30 00:09:06;;;;;;;21.30;17.50;;;13.10;1.00;;;;;;5068880;28;20340;-54
2023/04/30 00:11:32;;;;;;;18.03;16.20;;;13.00;1.00;;;;;;5068906;28;20287;-53
2023/04/30 00:13:58;;;;;;;18.50;16.47;;;13.10;1.00;;;;;;5066772;28;20982;-53
2023/04/30 00:16:23;;;;;;;17.83;15.90;;;13.10;1.00;;;;;;5066669;28;20320;-52
2023/04/30 00:18:49;;;;;;;18.60;14.87;;;13.00;1.00;;;;;;5069040;28;20188;-55
2023/04/30 00:21:15;;;;;;;18.43;16.20;;;13.00;1.00;;;;;;5069053;28;20188;-55
2023/04/30 00:23:40;;;;;;;18.47;15.73;;;13.00;1.00;;;;;;5067392;28;20534;-55
2023/04/30 00:26:06;;;;;;;18.40;15.23;;;13.00;1.00;;;;;;5069543;28;20200;-55
2023/04/30 00:28:31;;;;;;;19.33;14.73;;;13.00;1.00;;;;;;5069858;28;20270;-54
2023/04/30 00:30:57;;;;;;;16.77;14.60;;;12.90;1.00;;;;;;5070134;28;20688;-55
2023/04/30 00:33:22;;;;;;;15.87;14.27;;;12.90;1.00;;;;;;5063175;28;20191;-54
2023/04/30 00:35:48;;;;;;;18.80;14.97;;;12.90;1.00;;;;;;5063009;28;20595;-53
2023/04/30 00:38:14;;;;;;;15.03;13.53;;;12.80;1.00;;;;;;5067387;28;20192;-55
2023/04/30 00:40:43;;;;;;;15.73;12.80;;;12.70;1.00;;;;;;5065868;28;20593;-53
2023/04/30 00:43:09;;;;;;;15.83;12.63;;;12.70;1.00;;;;;;5064005;28;20587;-53
2023/04/30 00:45:35;;;;;;;12.90;11.30;;;12.70;1.00;;;;;;5066566;28;20461;-53
2023/04/30 00:48:00;;;;;;;10.63;9.63;;;12.70;1.00;;;;;;5062406;28;20442;-53
2023/04/30 00:50:27;;;;;;;10.53;9.37;;;12.70;1.00;;;;;;5063406;28;20184;-53
2023/04/30 00:52:53;;;;;;;11.93;9.83;;;12.40;1.00;;;;;;5063351;28;20176;-55
2023/04/30 00:55:18;;;;;;;9.97;9.00;;;12.40;1.00;;;;;;5062286;28;21002;-56
2023/04/30 00:57:45;;;;;;;9.73;8.90;;;12.30;1.00;;;;;;5064149;28;20307;-53
2023/04/30 01:00:12;;;;;;;12.43;9.77;;;12.30;1.00;;;;;;5065202;28;20970;-54
2023/04/30 01:02:39;;;;;;;11.70;10.40;;;12.20;1.00;;;;;;5064017;28;20884;-53
2023/04/30 01:05:05;;;;;;;13.80;12.10;;;12.30;1.00;;;;;;5063337;28;20435;-54
2023/04/30 01:07:33;;;;;;;11.80;10.50;;;12.20;1.00;;;;;;5063309;28;20446;-54
2023/04/30 01:09:59;;;;;;;16.40;11.73;;;12.20;1.00;;;;;;5061176;28;20656;-51
2023/04/30 01:12:33;;;;;;;13.07;11.67;;;12.00;1.00;;;;;;5064708;28;20523;-54
2023/04/30 01:15:14;;;;;;;13.13;11.83;;;12.10;1.00;;;;;;5063812;28;20459;-54
2023/04/30 01:18:02;;;;;;;12.20;11.07;;;12.00;1.00;;;;;;5062790;28;20894;-55
2023/04/30 01:20:29;;;;;;;15.30;12.77;;;11.90;1.00;;;;;;5062634;28;20452;-54
2023/04/30 01:23:24;;;;;;;12.67;11.37;;;11.90;1.00;;;;;;5066640;28;20438;-55
2023/04/30 01:25:56;;;;;;;12.90;10.67;;;11.70;1.00;;;;;;5052088;28;20834;-55
2023/04/30 01:28:23;;;;;;;11.40;10.30;;;11.60;1.00;;;;;;5061592;28;20439;-54
2023/04/30 01:30:49;;;;;;;12.63;10.10;;;11.60;1.00;;;;;;5066303;28;20438;-54
2023/04/30 01:33:15;;;;;;;12.23;11.03;;;11.60;1.00;;;;;;5060153;28;20446;-52
2023/04/30 01:36:02;;;;;;;13.37;10.57;;;11.60;1.00;;;;;;5061292;28;20846;-53
2023/04/30 01:38:36;;;;;;;13.97;10.80;;;11.40;1.00;;;;;;5063754;28;20196;-54
2023/04/30 01:41:25;;;;;;;12.17;10.90;;;11.50;1.00;;;;;;5065624;28;20433;-54
2023/04/30 01:44:11;;;;;;;16.63;13.20;;;11.40;1.00;;;;;;5065544;28;20442;-53
2023/04/30 01:46:36;;;;;;;14.90;12.13;;;11.40;1.00;;;;;;5067414;28;20437;-53
2023/04/30 01:49:36;;;;;;;15.67;12.03;;;11.50;1.00;;;;;;5058245;28;20477;-53
2023/04/30 01:52:23;;;;;;;14.70;13.30;;;11.30;1.00;;;;;;5065320;28;20187;-52
2023/04/30 01:55:00;;;;;;;16.10;12.70;;;11.30;1.00;;;;;;5067516;28;20536;-52
2023/04/30 01:57:36;;;;;;;18.90;14.43;;;11.30;1.00;;;;;;5065785;28;20483;-53
2023/04/30 02:00:03;;;;;;;16.90;13.40;;;11.20;1.00;;;;;;5068303;28;20416;-54
2023/04/30 02:02:29;;;;;;;18.27;14.13;;;11.10;1.00;;;;;;5066557;28;20446;-54
2023/04/30 02:04:55;;;;;;;15.07;13.40;;;11.10;1.00;;;;;;5063209;28;20442;-53
2023/04/30 02:07:42;;;;;;;17.63;14.27;;;10.90;1.00;;;;;;5066990;28;20448;-54
2023/04/30 02:10:08;;;;;;;13.13;11.90;;;10.90;1.00;;;;;;5062023;28;20575;-54
2023/04/30 02:12:34;;;;;;;14.60;13.03;;;10.90;1.00;;;;;;5062833;28;20773;-53
2023/04/30 02:15:01;;;;;;;14.43;12.57;;;10.90;1.00;;;;;;5063868;28;20454;-53
2023/04/30 02:17:26;;;;;;;15.43;12.43;;;10.80;1.00;;;;;;5065638;28;20792;-53
2023/04/30 02:19:52;;;;;;;15.13;12.03;;;10.80;1.00;;;;;;5066296;28;20442;-53
2023/04/30 02:22:18;;;;;;;14.50;12.83;;;10.80;1.00;;;;;;5063403;28;20537;-53
2023/04/30 02:24:43;;;;;;;12.73;11.30;;;10.60;1.00;;;;;;5067606;28;20192;-55
2023/04/30 02:27:09;;;;;;;12.17;11.03;;;10.60;1.00;;;;;;5066684;28;20176;-53
2023/04/30 02:29:35;;;;;;;12.67;11.27;;;10.60;1.00;;;;;;5064554;28;20180;-55
2023/04/30 02:32:01;;;;;;;12.80;11.50;;;10.60;1.00;;;;;;5083651;28;20519;-55
2023/04/30 02:34:26;;;;;;;12.40;10.77;;;10.50;1.00;;;;;;5071693;28;20614;-53
2023/04/30 02:36:52;;;;;;;12.13;10.90;;;10.50;1.00;;;;;;5064612;28;20276;-54
2023/04/30 02:39:17;;;;;;;10.90;9.67;;;10.40;1.00;;;;;;5059331;28;20670;-52
2023/04/30 02:41:43;;;;;;;10.03;9.03;;;10.40;1.00;;;;;;5057389;28;20196;-55
2023/04/30 02:44:08;;;;;;;11.77;10.57;;;10.20;1.00;;;;;;5064635;28;20195;-53
2023/04/30 02:46:34;;;;;;;11.40;10.17;;;10.20;1.00;;;;;;5065206;28;20195;-53
2023/04/30 02:49:00;;;;;;;11.40;10.27;;;10.10;1.00;;;;;;5060079;28;20566;-54
2023/04/30 02:51:25;;;;;;;12.00;10.87;;;10.20;1.00;;;;;;5060874;28;20528;-54
2023/04/30 02:53:51;;;;;;;10.90;9.80;;;10.30;1.00;;;;;;5056658;28;20591;-55
2023/04/30 02:56:16;;;;;;;10.80;9.70;;;10.20;1.00;;;;;;5062302;28;20239;-55
2023/04/30 02:58:42;;;;;;;10.37;9.43;;;10.10;1.00;;;;;;5063013;28;20207;-54
2023/04/30 03:01:08;;;;;;;9.73;8.73;;;10.10;1.00;;;;;;5065678;28;20641;-55
2023/04/30 03:03:33;;;;;;;10.43;8.67;;;9.90;1.00;;;;;;5061183;28;20203;-52
2023/04/30 03:05:59;;;;;;;11.20;9.23;;;9.90;1.00;;;;;;5065529;28;20584;-54
2023/04/30 03:08:25;;;;;;;10.77;9.63;;;9.90;1.00;;;;;;5065858;28;20200;-56
2023/04/30 03:10:51;;;;;;;9.53;8.63;;;9.80;1.00;;;;;;5056684;28;20195;-54
2023/04/30 03:13:17;;;;;;;9.20;8.30;;;9.80;1.00;;;;;;5062389;28;20462;-54
2023/04/30 03:15:43;;;;;;;8.67;7.77;;;9.70;1.00;;;;;;5084146;28;20195;-54
2023/04/30 03:18:09;;;;;;;8.43;7.63;;;9.60;1.00;;;;;;5065649;28;20454;-54
2023/04/30 03:20:35;;;;;;;12.80;8.90;;;9.60;1.00;;;;;;5068762;28;20188;-52
2023/04/30 03:23:01;;;;;;;9.43;8.53;;;9.50;1.00;;;;;;5072468;28;20451;-56
2023/04/30 03:25:26;;;;;;;8.83;7.87;;;9.60;1.00;;;;;;5067276;28;20554;-55
2023/04/30 03:27:52;;;;;;;9.90;8.00;;;9.60;1.00;;;;;;5068824;28;20184;-54
2023/04/30 03:30:18;;;;;;;8.53;6.90;;;9.50;1.00;;;;;;5067110;28;21679;-55
2023/04/30 03:32:43;;;;;;;7.60;6.80;;;9.50;1.00;;;;;;5063191;28;20571;-55
2023/04/30 03:35:09;;;;;;;8.93;8.07;;;9.50;1.00;;;;;;5068617;28;20194;-54
2023/04/30 03:37:35;;;;;;;9.33;7.17;;;9.40;1.00;;;;;;5069369;28;20222;-55
2023/04/30 03:40:01;;;;;;;8.87;7.20;;;9.30;1.00;;;;;;5062365;28;20441;-52
2023/04/30 03:42:26;;;;;;;10.03;7.40;;;9.30;1.00;;;;;;5064897;28;20655;-54
2023/04/30 03:44:52;;;;;;;10.17;7.73;;;9.20;1.00;;;;;;5062463;28;20194;-54
2023/04/30 03:47:17;;;;;;;7.87;7.20;;;9.20;1.00;;;;;;5068388;28;20191;-54
2023/04/30 03:49:43;;;;;;;9.70;8.30;;;9.30;1.00;;;;;;5068586;28;20642;-52
2023/04/30 03:52:10;;;;;;;8.60;7.30;;;9.50;1.00;;;;;;5062209;28;20191;-53
2023/04/30 03:54:35;;;;;;;9.20;7.80;;;9.30;1.00;;;;;;5064278;28;20450;-54
2023/04/30 03:57:03;;;;;;;8.07;7.27;;;9.30;1.00;;;;;;5069306;28;20500;-56
2023/04/30 03:59:30;;;;;;;7.57;6.60;;;9.30;1.00;;;;;;5065080;28;20188;-55
2023/04/30 04:01:56;;;;;;;9.00;7.33;;;9.40;1.00;;;;;;5065733;28;21017;-52
2023/04/30 04:04:21;;;;;;;7.90;7.10;;;9.40;1.00;;;;;;5067160;28;20541;-53
2023/04/30 04:06:47;;;;;;;7.67;6.87;;;9.20;1.00;;;;;;5066750;28;20192;-54
2023/04/30 04:09:13;;;;;;;7.00;6.30;;;9.30;1.00;;;;;;5063585;28;20210;-53
2023/04/30 04:11:38;;;;;;;9.40;6.83;;;9.30;1.00;;;;;;5063477;28;20246;-54
2023/04/30 04:14:04;;;;;;;9.03;6.40;;;9.30;1.00;;;;;;5063462;28;20812;-53
2023/04/30 04:16:29;;;;;;;6.57;5.97;;;9.40;1.00;;;;;;5065327;28;20242;-53
2023/04/30 04:18:55;;;;;;;8.80;6.20;;;9.30;1.00;;;;;;5067032;28;20184;-56
2023/04/30 04:21:21;;;;;;;7.30;6.60;;;9.30;1.00;;;;;;5070660;28;20188;-55
2023/04/30 04:23:46;;;;;;;6.63;5.83;;;9.30;1.00;;;;;;5065659;28;20187;-54
2023/04/30 04:26:12;;;;;;;10.53;6.83;;;9.30;1.00;;;;;;5067575;28;20204;-53
2023/04/30 04:28:37;;;;;;;6.77;6.13;;;9.20;1.00;;;;;;5068092;28;20191;-54
2023/04/30 04:31:03;;;;;;;7.80;6.40;;;9.30;1.00;;;;;;5068366;28;20192;-54
2023/04/30 04:33:29;;;;;;;10.80;6.47;;;9.20;1.00;;;;;;5067502;28;20268;-54
2023/04/30 04:35:56;;;;;;;8.83;7.10;;;9.20;1.00;;;;;;5069384;28;20195;-53
2023/04/30 04:38:23;;;;;;;8.83;7.57;;;9.20;1.00;;;;;;5064796;28;20481;-54
2023/04/30 04:40:52;;;;;;;6.90;6.20;;;9.30;1.00;;;;;;5067713;28;20446;-52
2023/04/30 04:43:18;;;;;;;6.77;6.10;;;9.40;1.00;;;;;;5063281;28;20450;-53
2023/04/30 04:45:44;;;;;;;6.17;5.60;;;9.40;1.00;;;;;;5065270;28;20461;-55
2023/04/30 04:48:10;;;;;;;7.97;5.87;;;9.50;1.00;;;;;;5060971;28;20447;-53
2023/04/30 04:50:36;;;;;;;7.50;5.57;;;9.60;1.00;;;;;;5066165;28;20466;-53
2023/04/30 04:53:01;;;;;;;11.03;6.57;;;9.50;1.00;;;;;;5062277;28;20180;-54
2023/04/30 04:55:27;;;;;;;8.00;6.50;;;9.60;1.00;;;;;;5064628;28;20307;-53
2023/04/30 04:57:52;;;;;;;7.67;5.60;;;9.70;1.00;;;;;;5068839;28;20547;-54
2023/04/30 05:00:20;;;;;;;6.83;6.07;;;9.80;1.00;;;;;;5062918;28;20213;-53
2023/04/30 05:02:46;;;;;;;6.63;5.90;;;10.00;1.00;;;;;;5058449;28;20236;-51
2023/04/30 05:05:12;;;;;;;6.50;5.73;;;9.90;1.00;;;;;;5064550;28;20450;-53
2023/04/30 05:07:38;;;;;;;7.10;6.17;;;9.80;1.00;;;;;;5065693;28;20191;-51
2023/04/30 05:10:04;;;;;;;9.43;5.93;;;9.70;1.00;;;;;;5060101;28;20257;-53
2023/04/30 05:12:30;;;;;;;6.13;5.53;;;9.70;1.00;;;;;;5059109;28;20465;-52
2023/04/30 05:14:55;;;;;;;6.80;5.63;;;9.70;1.00;;;;;;5066572;28;20450;-54
2023/04/30 05:17:21;;;;;;;7.80;6.70;;;9.80;1.00;;;;;;5062498;28;20289;-51
2023/04/30 05:19:49;;;;;;;6.43;5.57;;;9.90;1.00;;;;;;5063374;28;20180;-53
2023/04/30 05:22:15;;;;;;;7.30;5.67;;;10.00;1.00;;;;;;5067185;28;20196;-55
2023/04/30 05:24:41;;;;;;;7.83;5.83;;;10.10;1.00;;;;;;5057124;28;20444;-55
2023/04/30 05:27:07;;;;;;;5.83;5.23;;;10.00;1.00;;;;;;5050644;28;20447;-52
2023/04/30 05:29:33;;;;;;;7.93;6.70;;;9.90;1.00;;;;;;5062111;28;20188;-52
2023/04/30 05:31:58;;;;;;;6.80;5.57;;;9.70;1.00;;;;;;5065771;28;20446;-55
2023/04/30 05:34:24;;;;;;;6.13;5.40;;;9.50;1.00;;;;;;5061835;28;20638;-53
2023/04/30 05:36:50;;;;;;;6.80;6.10;;;9.50;1.00;;;;;;5063726;28;20211;-54
2023/04/30 05:39:15;;;;;;;6.17;5.30;;;9.40;1.00;;;;;;5063606;28;20184;-54
2023/04/30 05:41:41;;;;;;;8.43;6.53;;;9.30;1.00;;;;;;5060532;28;20273;-53
2023/04/30 05:44:07;;;;;;;9.40;6.20;;;9.50;1.00;;;;;;5057661;28;20258;-52
2023/04/30 05:46:34;;;;;;;7.07;6.00;;;9.70;1.00;;;;;;5061701;28;20188;-54
2023/04/30 05:48:59;;;;;;;5.13;4.60;;;9.80;1.00;;;;;;5063738;28;20196;-52
2023/04/30 05:51:26;;;;;;;8.70;6.50;;;10.00;1.00;;;;;;5066989;28;20537;-52
2023/04/30 05:53:52;;;;;;;10.20;6.23;;;10.00;1.00;;;;;;5062063;28;20188;-53
2023/04/30 05:56:18;;;;;;;5.83;4.87;;;10.20;1.00;;;;;;5061971;28;20543;-54
2023/04/30 05:58:43;;;;;;;8.23;5.10;;;10.20;1.00;;;;;;5066308;28;20436;-53
2023/04/30 06:01:10;;;;;;;7.23;6.30;;;10.30;1.00;;;;;;5065096;28;20266;-53
2023/04/30 06:03:36;;;;;;;7.17;5.70;;;10.30;1.00;;;;;;5062173;28;20265;-53
2023/04/30 06:06:03;;;;;;;6.30;5.30;;;10.50;1.00;;;;;;5062809;28;20455;-51
2023/04/30 06:08:29;;;;;;;5.30;4.80;;;10.80;1.00;;;;;;5057560;28;20545;-54
2023/04/30 06:10:54;;;;;;;7.47;5.17;;;10.90;1.00;;;;;;5060982;28;20676;-52
2023/04/30 06:13:21;;;;;;;12.17;5.40;;;11.00;1.00;;;;;;5057413;28;20446;-55
2023/04/30 06:15:46;;;;;;;10.97;5.50;;;11.40;1.00;;;;;;5059655;28;20802;-57
2023/04/30 06:18:13;;;;;;;5.87;4.80;;;11.40;1.00;;;;;;5061920;28;20799;-53
2023/04/30 06:20:39;;;;;;;7.27;4.97;;;11.50;1.00;;;;;;5060287;28;20228;-53
2023/04/30 06:23:05;;;;;;;6.93;5.57;;;11.50;1.00;;;;;;5063390;28;20454;-53
2023/04/30 06:25:31;;;;;;;9.17;4.67;;;11.40;1.00;;;;;;5059385;28;20438;-53
2023/04/30 06:27:56;;;;;;;8.17;5.00;;;11.30;1.00;;;;;;5062552;28;20457;-53
2023/04/30 06:30:22;;;;;;;5.73;5.07;;;11.40;1.00;;;;;;5062435;28;20653;-50
2023/04/30 06:32:48;;;;;;;5.63;4.37;;;11.50;1.00;;;;;;5065910;28;20191;-54
2023/04/30 06:35:14;;;;;;;6.23;5.40;;;11.50;1.00;;;;;;5064257;28;20191;-55
2023/04/30 06:37:39;;;;;;;7.80;5.77;;;11.40;1.00;;;;;;5062869;28;20206;-55
2023/04/30 06:40:06;;;;;;;8.50;5.00;;;11.30;1.00;;;;;;5065216;28;20948;-57
2023/04/30 06:42:35;;;;;;;8.43;4.70;;;11.20;1.00;;;;;;5061268;28;20188;-52
2023/04/30 06:45:02;;;;;;;6.10;4.67;;;11.20;1.00;;;;;;5062011;28;20438;-52
2023/04/30 06:47:33;;;;;;;5.50;4.97;;;11.00;1.00;;;;;;5061051;28;20454;-56
2023/04/30 06:49:59;;;;;;;8.30;5.30;;;11.20;1.00;;;;;;5062812;28;20442;-51
2023/04/30 06:52:25;;;;;;;7.80;5.30;;;11.10;1.00;;;;;;5060454;28;20569;-52
2023/04/30 06:54:51;;;;;;;7.13;4.80;;;11.10;1.00;;;;;;5059511;28;20541;-55
2023/04/30 06:57:16;;;;;;;5.27;4.77;;;11.30;1.00;;;;;;5064625;28;20589;-54
2023/04/30 06:59:43;;;;;;;4.73;4.30;;;11.50;1.00;;;;;;5059229;28;20257;-52
2023/04/30 07:02:09;;;;;;;6.43;5.07;;;12.00;1.00;;;;;;5059498;28;20454;-53
2023/04/30 07:04:35;;;;;;;7.90;4.77;;;12.30;1.00;;;;;;5063914;28;20196;-55
2023/04/30 07:07:01;;;;;;;8.20;4.50;;;12.50;1.00;;;;;;5064811;28;20854;-54
2023/04/30 07:09:29;;;;;;;5.27;4.70;;;12.20;1.00;;;;;;5064814;28;20588;-54
2023/04/30 07:11:57;;;;;;;7.70;5.53;;;12.20;1.00;;;;;;5063287;28;20191;-54
2023/04/30 07:14:23;;;;;;;6.00;4.97;;;12.60;1.00;;;;;;5067746;28;20892;-53
2023/04/30 07:16:52;;;;;;;6.70;4.90;;;12.90;1.00;;;;;;5066994;28;20952;-54
2023/04/30 07:19:18;;;;;;;7.73;5.10;;;12.50;1.00;;;;;;5069183;28;20764;-54
2023/04/30 07:21:44;;;;;;;6.53;4.30;;;12.30;1.00;;;;;;5063899;28;20464;-53
2023/04/30 07:24:09;;;;;;;6.70;4.40;;;12.00;1.00;;;;;;5068587;28;20796;-53
2023/04/30 07:26:35;;;;;;;7.77;4.70;;;12.20;1.00;;;;;;5064989;28;20185;-53
2023/04/30 07:29:02;;;;;;;12.20;5.40;;;12.30;1.00;;;;;;5066602;28;20199;-53
2023/04/30 07:31:28;;;;;;;9.93;4.60;;;12.70;1.00;;;;;;5067268;28;20276;-55
2023/04/30 07:33:54;;;;;;;6.93;5.57;;;12.90;1.00;;;;;;5065642;28;20542;-53
2023/04/30 07:36:21;;;;;;;7.93;5.73;;;12.70;1.00;;;;;;5065157;28;20890;-54
2023/04/30 07:38:46;;;;;;;6.63;5.23;;;12.40;1.00;;;;;;5068626;28;20413;-53
2023/04/30 07:41:13;;;;;;;6.63;5.40;;;12.60;1.00;;;;;;5061071;28;20476;-54
2023/04/30 07:43:38;;;;;;;8.73;5.20;;;12.80;1.00;;;;;;5060326;28;20188;-53
2023/04/30 07:46:04;;;;;;;9.37;5.10;;;12.80;1.00;;;;;;5062162;28;20450;-54
2023/04/30 07:48:30;;;;;;;7.53;5.10;;;13.10;1.00;;;;;;5068068;28;20184;-55
2023/04/30 07:50:56;;;;;;;5.30;4.80;;;13.00;1.00;;;;;;5064112;28;20200;-54
2023/04/30 07:53:25;;;;;;;6.50;4.87;;;13.00;1.00;;;;;;5068787;28;20517;-53
2023/04/30 07:55:50;;;;;;;6.77;4.90;;;13.00;1.00;;;;;;5060566;28;20939;-55
2023/04/30 07:58:16;;;;;;;7.97;4.73;;;13.20;1.00;;;;;;5066535;28;20497;-54
2023/04/30 08:00:42;;;;;;;7.10;5.90;;;13.10;1.00;;;;;;5068871;28;20183;-53
2023/04/30 08:03:07;;;;;;;10.23;5.07;;;13.30;1.00;;;;;;5069558;28;20276;-53
2023/04/30 08:05:33;;;;;;;5.70;4.13;;;13.70;1.00;;;;;;5085089;28;20191;-53
2023/04/30 08:07:59;;;;;;;5.03;4.37;;;13.60;1.00;;;;;;5071702;28;20629;-57
2023/04/30 08:10:25;;;;;;;5.77;5.00;;;13.50;1.00;;;;;;5070090;28;20261;-53
2023/04/30 08:12:51;;;;;;;8.97;4.90;;;13.50;1.00;;;;;;5070513;28;20926;-54
2023/04/30 08:15:20;;;;;;;5.20;4.73;;;13.50;1.00;;;;;;5067019;28;20607;-54
2023/04/30 08:17:50;;;;;;;8.40;4.70;;;13.70;1.00;;;;;;5068063;28;20469;-53
2023/04/30 08:20:16;;;;;;;4.90;4.17;;;14.20;1.00;;;;;;5067702;28;20871;-52
2023/04/30 08:22:42;;;;;;;8.93;4.80;;;14.50;99.90;;;;;;5066591;28;22306;-53
2023/04/30 08:25:10;;;;;;;7.33;4.83;;;14.30;99.90;;;;;;5067571;28;20975;-54
2023/04/30 08:27:36;;;;;;;10.30;4.40;;;14.20;99.90;;;;;;5068815;28;20788;-54
2023/04/30 08:30:02;;;;;;;6.33;4.60;;;14.10;99.90;;;;;;5064070;28;20641;-52
2023/04/30 08:32:28;;;;;;;6.10;3.90;;;13.80;99.90;;;;;;5065794;28;20446;-53
2023/04/30 08:34:54;;;;;;;8.53;4.10;;;14.10;99.90;;;;;;5070060;28;20953;-54
2023/04/30 08:37:20;;;;;;;8.87;4.70;;;14.30;99.90;;;;;;5069070;28;20466;-56
2023/04/30 08:39:45;;;;;;;5.80;4.93;;;14.40;99.90;;;;;;5065145;28;20469;-52
2023/04/30 08:42:13;;;;;;;6.50;4.93;;;14.40;99.90;;;;;;5070061;28;20235;-55
2023/04/30 08:44:42;;;;;;;7.47;4.77;;;14.60;99.90;;;;;;5070512;28;20179;-51
2023/04/30 08:47:12;;;;;;;7.33;4.30;;;14.70;99.90;;;;;;5067277;28;20441;-54
2023/04/30 08:49:38;;;;;;;8.97;6.13;;;14.80;99.90;;;;;;5071189;28;20939;-55
2023/04/30 08:52:03;;;;;;;7.80;4.47;;;14.80;99.90;;;;;;5066815;28;20651;-52
2023/04/30 08:54:34;;;;;;;7.13;4.80;;;14.70;99.90;;;;;;5065657;28;20980;-57
2023/04/30 08:57:00;;;;;;;6.60;4.50;;;14.80;99.90;;;;;;5067569;28;20247;-54
2023/04/30 08:59:26;;;;;;;8.20;4.53;;;14.70;99.90;;;;;;5070792;28;20430;-53
2023/04/30 09:01:51;;;;;;;7.23;5.00;;;14.30;99.90;;;;;;5067315;28;20456;-53
2023/04/30 09:04:17;;;;;;;4.90;4.33;;;14.10;99.90;;;;;;5065178;28;20434;-54
2023/04/30 09:06:43;;;;;;;6.03;4.50;;;14.20;99.90;;;;;;5070096;28;20442;-53
2023/04/30 09:09:13;;;;;;;4.70;4.00;;;14.40;99.90;;;;;;5068998;28;20187;-51
2023/04/30 09:11:40;;;;;;;8.40;4.60;;;14.40;99.90;;;;;;5068169;28;20557;-54
2023/04/30 09:14:06;;;;;;;6.27;4.67;;;14.60;99.90;;;;;;5070710;28;20527;-53
2023/04/30 09:16:47;;;;;;;7.70;4.30;;;14.50;99.90;;;;;;5071810;28;20480;-56
2023/04/30 09:19:26;;;;;;;4.40;4.00;;;14.70;99.90;;;;;;5070087;28;20471;-54
2023/04/30 09:21:52;;;;;;;6.57;3.90;;;15.20;99.90;;;;;;5070459;28;20405;-54
2023/04/30 09:24:18;;;;;;;8.47;4.90;;;15.30;99.90;;;;;;5071051;28;20419;-57
2023/04/30 09:26:46;;;;;;;6.83;4.23;;;14.80;99.90;;;;;;5070003;28;20433;-54
2023/04/30 09:29:11;;;;;;;4.77;4.23;;;14.40;99.90;;;;;;5069155;28;20194;-52
2023/04/30 09:31:39;;;;;;;9.60;5.00;;;14.40;99.90;;;;;;5078691;28;20437;-52
2023/04/30 09:34:05;;;;;;;8.60;4.27;;;14.50;99.90;;;;;;5070769;28;20199;-55
2023/04/30 09:36:31;;;;;;;4.27;3.70;;;14.80;99.90;;;;;;5069702;28;20611;-54
2023/04/30 09:39:10;;;;;;;6.50;3.70;;;15.20;99.90;;;;;;5071135;28;20507;-53
2023/04/30 09:41:36;;;;;;;6.40;4.20;;;15.60;99.90;;;;;;5068241;28;21018;-52
2023/04/30 09:44:02;;;;;;;4.90;4.33;;;16.10;99.90;;;;;;5065206;28;20560;-55
2023/04/30 09:46:37;;;;;;;9.73;4.23;;;15.70;99.90;;;;;;5068132;28;20261;-57
2023/04/30 09:49:05;;;;;;;4.33;3.93;;;15.20;99.90;;;;;;5070261;28;20433;-55
2023/04/30 09:51:30;;;;;;;8.47;4.73;;;15.00;99.90;;;;;;5083066;28;20532;-54
2023/04/30 09:53:56;;;;;;;3.80;3.50;;;15.30;99.90;;;;;;5079388;28;20512;-55
2023/04/30 09:56:25;;;;;;;5.00;4.20;;;15.40;99.90;;;;;;5063853;28;20235;-55
2023/04/30 09:58:55;;;;;;;5.30;3.53;;;15.70;99.90;;;;;;5069734;28;20439;-53
2023/04/30 10:01:22;;;;;;;7.30;4.00;;;15.90;99.90;;;;;;5066480;28;20405;-53
2023/04/30 10:03:48;;;;;;;6.70;4.20;;;15.70;99.90;;;;;;5060424;28;20448;-55
2023/04/30 10:06:18;;;;;;;4.87;3.60;;;15.20;99.90;;;;;;5061173;28;21054;-53
2023/04/30 10:08:48;;;;;;;5.23;3.90;;;15.20;99.90;;;;;;5062363;28;20571;-53
2023/04/30 10:11:20;;;;;;;5.03;4.23;;;15.80;99.90;;;;;;5063788;28;20530;-54
2023/04/30 10:14:12;;;;;;;4.40;3.97;;;16.30;99.90;;;;;;5059887;28;20455;-55
2023/04/30 10:16:59;;;;;;;4.23;3.60;;;16.10;99.90;;;;;;5063544;28;20451;-54
2023/04/30 10:19:29;;;;;;;4.40;3.90;;;15.60;99.90;;;;;;5066269;28;20811;-53
2023/04/30 10:21:54;;;;;;;6.87;4.53;;;15.30;99.90;;;;;;5064523;28;20820;-52
2023/04/30 10:24:20;;;;;;;5.83;4.33;;;15.50;99.90;;;;;;5080920;28;20412;-55
2023/04/30 10:26:47;;;;;;;4.60;3.90;;;15.40;99.90;;;;;;5079450;28;20187;-54
2023/04/30 10:29:14;;;;;;;5.33;4.03;;;15.80;99.90;;;;;;5069727;28;20452;-53
2023/04/30 10:31:41;;;;;;;3.63;3.33;;;16.00;99.90;;;;;;5080342;28;20516;-55
2023/04/30 10:34:29;;;;;;;4.33;3.90;;;15.70;99.90;;;;;;5068111;28;20419;-53
2023/04/30 10:36:59;;;;;;;4.97;4.07;;;15.40;99.90;;;;;;5064060;28;20979;-52
2023/04/30 10:39:29;;;;;;;5.43;4.47;;;15.40;99.90;;;;;;5069160;28;20491;-55
2023/04/30 10:42:02;;;;;;;7.50;4.10;;;15.30;99.90;;;;;;5067554;28;20512;-54
2023/04/30 10:44:35;;;;;;;6.53;4.60;;;15.90;99.90;;;;;;5052210;28;20471;-55
2023/04/30 10:47:03;;;;;;;5.60;4.33;;;16.70;99.90;;;;;;5078904;28;20575;-53
2023/04/30 10:49:29;;;;;;;4.40;4.00;;;16.70;99.90;;;;;;5077536;28;20446;-55
2023/04/30 10:51:59;;;;;;;5.43;4.17;;;16.00;99.90;;;;;;5067709;28;20456;-54
2023/04/30 10:54:34;;;;;;;6.20;3.80;;;15.60;99.90;;;;;;5061450;28;20461;-55
2023/04/30 10:57:11;;;;;;;5.80;3.73;;;16.20;99.90;;;;;;5057722;28;20866;-54
2023/04/30 10:59:37;;;;;;;3.60;3.20;;;16.40;99.90;;;;;;5062993;28;20452;-54
2023/04/30 11:02:02;;;;;;;4.53;3.00;;;16.50;99.90;;;;;;5065355;28;20420;-56
2023/04/30 11:04:28;;;;;;;5.00;3.80;;;16.40;99.90;;;;;;5068070;28;20271;-54
2023/04/30 11:07:01;;;;;;;7.37;4.70;;;16.30;99.90;;;;;;5064768;28;20188;-54
2023/04/30 11:09:44;;;;;;;8.30;3.80;;;16.60;99.90;;;;;;5069505;28;20477;-54
2023/04/30 11:12:20;;;;;;;3.27;3.07;;;16.60;99.90;;;;;;5069419;28;20935;-53
2023/04/30 11:14:46;;;;;;;5.00;3.57;;;16.00;99.90;;;;;;5075241;28;20932;-57
2023/04/30 11:17:21;;;;;;;7.30;4.43;;;16.00;99.90;;;;;;5086923;28;20972;-54
2023/04/30 11:19:51;;;;;;;4.10;3.70;;;15.90;99.90;;;;;;5089326;28;20552;-54
2023/04/30 11:22:20;;;;;;;4.50;3.40;;;15.70;99.90;;;;;;5077300;28;20430;-54
2023/04/30 11:24:58;;;;;;;6.37;3.73;;;15.90;99.90;;;;;;5069293;28;20465;-55
2023/04/30 11:27:26;;;;;;;3.77;2.83;;;15.80;99.90;;;;;;5068989;28;20437;-52
2023/04/30 11:29:52;;;;;;;5.97;3.13;;;15.50;99.90;;;;;;5067825;28;20443;-55
2023/04/30 11:32:22;;;;;;;4.67;3.37;;;15.70;99.90;;;;;;5068917;28;20438;-54
2023/04/30 11:34:49;;;;;;;4.03;3.10;;;16.00;99.90;;;;;;5078259;28;20429;-54
2023/04/30 11:37:32;;;;;;;6.37;3.67;;;16.10;99.90;;;;;;5075809;28;20507;-55
2023/04/30 11:40:01;;;;;;;4.90;3.20;;;16.30;99.90;;;;;;5072472;28;20512;-53
2023/04/30 11:42:29;;;;;;;8.83;3.93;;;16.60;99.90;;;;;;5069159;28;20446;-54
2023/04/30 11:45:01;;;;;;;5.20;3.63;;;16.70;99.90;;;;;;5072927;28;20449;-55
2023/04/30 11:47:26;;;;;;;5.23;3.20;;;16.30;99.90;;;;;;5086905;28;20429;-53
2023/04/30 11:49:55;;;;;;;6.17;3.27;;;15.90;99.90;;;;;;5092764;28;20505;-54
2023/04/30 11:52:24;;;;;;;3.30;2.97;;;16.00;99.90;;;;;;5086197;28;20571;-54
2023/04/30 11:54:53;;;;;;;3.37;2.87;;;15.90;99.90;;;;;;5076185;28;20429;-54
2023/04/30 11:57:19;;;;;;;4.27;3.00;;;16.10;99.90;;;;;;5092838;28;20518;-55
2023/04/30 11:59:45;;;;;;;5.97;3.43;;;16.30;99.90;;;;;;5092698;28;20429;-54
2023/04/30 12:02:15;;;;;;;4.60;3.50;;;16.40;99.90;;;;;;5092576;28;20688;-53
2023/04/30 12:04:42;;;;;;;4.33;3.33;;;16.30;99.90;;;;;;5092598;28;20227;-54
2023/04/30 12:07:08;;;;;;;4.93;3.30;;;16.00;99.90;;;;;;5090753;28;20448;-54
2023/04/30 12:09:51;;;;;;;4.07;2.80;;;16.00;99.90;;;;;;5070235;28;20441;-53
2023/04/30 12:12:29;;;;;;;5.43;3.70;;;15.90;99.90;;;;;;5072057;28;20206;-54
2023/04/30 12:14:55;;;;;;;3.50;3.20;;;16.00;99.90;;;;;;5070781;28;20499;-53
2023/04/30 12:17:34;;;;;;;4.43;2.83;;;16.10;99.90;;;;;;5069479;28;20461;-54
2023/04/30 12:20:00;;;;;;;3.20;2.90;;;15.90;99.90;;;;;;5071953;28;20630;-54
2023/04/30 12:22:26;;;;;;;3.90;3.40;;;15.70;99.90;;;;;;5071964;28;20461;-52
2023/04/30 12:24:52;;;;;;;3.47;2.77;;;15.90;99.90;;;;;;5073781;28;20187;-54
2023/04/30 12:27:18;;;;;;;3.10;2.80;;;16.00;99.90;;;;;;5071229;28;20425;-53
2023/04/30 12:29:46;;;;;;;7.00;2.83;;;16.10;99.90;;;;;;5071682;28;20987;-55
2023/04/30 12:32:14;;;;;;;3.47;2.90;;;16.30;99.90;;;;;;5083573;28;20652;-54
2023/04/30 12:34:41;;;;;;;3.50;2.57;;;16.30;99.90;;;;;;5092367;28;20784;-54
2023/04/30 12:37:07;;;;;;;2.77;2.47;;;16.30;99.90;;;;;;5091691;28;20775;-54
2023/04/30 12:39:33;;;;;;;5.23;2.70;;;16.40;99.90;;;;;;5082216;28;20478;-52
2023/04/30 12:41:59;;;;;;;4.53;3.13;;;16.10;99.90;;;;;;5070417;28;20610;-54
2023/04/30 12:44:26;;;;;;;3.50;2.53;;;16.00;99.90;;;;;;5071251;28;20412;-53
2023/04/30 12:46:59;;;;;;;5.93;2.90;;;16.30;99.90;;;;;;5070882;28;20484;-54
2023/04/30 12:49:32;;;;;;;5.77;2.83;;;16.10;99.90;;;;;;5070399;28;20827;-53
2023/04/30 12:52:03;;;;;;;5.47;3.00;;;16.30;99.90;;;;;;5071871;28;20530;-54
2023/04/30 12:54:31;;;;;;;6.30;2.70;;;16.40;99.90;;;;;;5088049;28;20464;-53